Time;durP1;ratioP1;P1;durP2;ratioP2;P2;SDS_P1;SDS_P2;PMS_P1;PMS_P2;Temp;Humidity;BMP_temperature;BMP_pressure;BME280_temperature;BME280_humidity;BME280_pressure;Samples;Min_cycle;Max_cycle;Signal;HPM_P1;HPM_P2
2023/05/12 00:04:12;;;;;;;0.20;0.20;;;;;;;;;;12608839;23;20409;-86
2023/05/12 00:09:16;;;;;;;0.80;0.40;;;;;;;;;;12607690;23;20412;-85
2023/05/12 00:14:18;;;;;;;0.40;0.33;;;;;;;;;;12609552;23;20381;-86
2023/05/12 00:19:20;;;;;;;0.40;0.30;;;;;;;;;;12605891;23;20998;-86
2023/05/12 00:24:24;;;;;;;0.30;0.30;;;;;;;;;;12608274;23;20373;-86
2023/05/12 00:29:26;;;;;;;0.40;0.30;;;;;;;;;;12608600;23;20365;-85
2023/05/12 00:34:29;;;;;;;0.50;0.50;;;;;;;;;;12609343;23;20929;-86
2023/05/12 00:39:32;;;;;;;0.53;0.40;;;;;;;;;;12608299;23;20373;-85
2023/05/12 00:44:35;;;;;;;1.90;0.47;;;;;;;;;;12608428;23;20373;-86
2023/05/12 00:49:41;;;;;;;0.70;0.60;;;;;;;;;;12628207;23;20428;-86
2023/05/12 00:54:45;;;;;;;0.60;0.60;;;;;;;;;;12606211;23;20924;-86
2023/05/12 00:59:48;;;;;;;0.57;0.57;;;;;;;;;;12606826;23;20428;-86
2023/05/12 01:04:51;;;;;;;0.95;0.70;;;;;;;;;;12608771;23;21244;-86
2023/05/12 01:09:58;;;;;;;0.57;0.50;;;;;;;;;;12628922;23;20754;-86
2023/05/12 01:15:00;;;;;;;0.80;0.70;;;;;;;;;;12608673;23;20837;-85
2023/05/12 01:20:05;;;;;;;0.60;0.60;;;;;;;;;;12628719;23;20415;-85
2023/05/12 01:25:11;;;;;;;1.40;0.70;;;;;;;;;;12607767;23;21117;-86
2023/05/12 01:30:17;;;;;;;0.70;0.70;;;;;;;;;;12608424;23;20372;-85
2023/05/12 01:35:19;;;;;;;0.80;0.70;;;;;;;;;;12608639;23;20405;-86
2023/05/12 01:40:22;;;;;;;0.70;0.70;;;;;;;;;;12607846;23;20420;-85
2023/05/12 01:45:25;;;;;;;0.50;0.50;;;;;;;;;;12607229;23;20388;-86
2023/05/12 01:50:28;;;;;;;0.43;0.40;;;;;;;;;;12608741;23;20373;-86
2023/05/12 01:55:30;;;;;;;1.10;0.50;;;;;;;;;;12609499;23;20369;-85
2023/05/12 02:00:34;;;;;;;1.50;0.50;;;;;;;;;;12611343;23;20399;-85
2023/05/12 02:05:36;;;;;;;1.00;0.60;;;;;;;;;;12626139;23;20436;-84
2023/05/12 02:10:38;;;;;;;0.60;0.60;;;;;;;;;;12610947;23;20372;-86
2023/05/12 02:15:42;;;;;;;0.70;0.60;;;;;;;;;;12611950;23;20368;-86
2023/05/12 02:20:44;;;;;;;1.07;0.67;;;;;;;;;;12611436;23;20437;-85
2023/05/12 02:25:46;;;;;;;0.90;0.68;;;;;;;;;;12611517;23;20384;-86
2023/05/12 02:30:51;;;;;;;1.10;0.63;;;;;;;;;;12631678;23;20373;-85
2023/05/12 02:35:54;;;;;;;0.70;0.70;;;;;;;;;;12632259;23;20381;-86
2023/05/12 02:40:56;;;;;;;1.40;0.80;;;;;;;;;;12610943;23;20369;-85
2023/05/12 02:46:00;;;;;;;1.38;0.73;;;;;;;;;;12610615;23;20401;-86
2023/05/12 02:51:02;;;;;;;0.90;0.73;;;;;;;;;;12608980;23;20377;-85
2023/05/12 02:56:06;;;;;;;0.68;0.68;;;;;;;;;;12611356;23;20829;-86
2023/05/12 03:01:10;;;;;;;0.80;0.80;;;;;;;;;;12611308;23;20373;-86
2023/05/12 03:06:12;;;;;;;1.00;1.00;;;;;;;;;;12610644;23;20393;-86
2023/05/12 03:11:14;;;;;;;1.30;1.10;;;;;;;;;;12610780;23;20436;-86
2023/05/12 03:16:19;;;;;;;1.90;1.10;;;;;;;;;;12612435;23;20380;-86
2023/05/12 03:21:21;;;;;;;2.13;1.40;;;;;;;;;;12609378;23;20408;-85
2023/05/12 03:26:23;;;;;;;1.93;1.67;;;;;;;;;;12609838;23;20474;-86
2023/05/12 03:31:27;;;;;;;2.23;2.00;;;;;;;;;;12609065;23;20373;-86
2023/05/12 03:36:29;;;;;;;2.75;2.40;;;;;;;;;;12609758;23;20738;-85
2023/05/12 03:41:32;;;;;;;3.93;2.60;;;;;;;;;;12610221;23;20401;-86
2023/05/12 03:46:35;;;;;;;2.70;2.33;;;;;;;;;;12609653;23;20424;-86
2023/05/12 03:51:38;;;;;;;3.15;2.85;;;;;;;;;;12610185;23;20380;-85
2023/05/12 03:56:40;;;;;;;3.45;2.92;;;;;;;;;;12610003;23;20369;-86
2023/05/12 04:01:44;;;;;;;3.10;2.80;;;;;;;;;;12609305;23;20435;-86
2023/05/12 04:06:46;;;;;;;3.20;2.80;;;;;;;;;;12608625;23;20502;-85
2023/05/12 04:11:50;;;;;;;3.13;2.60;;;;;;;;;;12629221;23;20385;-85
2023/05/12 04:16:53;;;;;;;3.03;2.10;;;;;;;;;;12609462;23;20373;-86
2023/05/12 04:21:56;;;;;;;2.60;1.80;;;;;;;;;;12629462;23;20380;-86
2023/05/12 04:26:58;;;;;;;1.50;1.20;;;;;;;;;;12608610;23;20766;-86
2023/05/12 04:32:02;;;;;;;1.30;1.13;;;;;;;;;;12609316;23;20837;-85
2023/05/12 04:37:05;;;;;;;1.00;0.75;;;;;;;;;;12608349;23;20424;-85
2023/05/12 04:42:07;;;;;;;0.73;0.50;;;;;;;;;;12607662;23;20373;-85
2023/05/12 04:47:11;;;;;;;1.05;0.60;;;;;;;;;;12605369;23;20861;-86
2023/05/12 04:52:13;;;;;;;0.65;0.65;;;;;;;;;;12606892;23;20377;-86
2023/05/12 04:57:16;;;;;;;0.60;0.60;;;;;;;;;;12608775;23;20372;-85
2023/05/12 05:02:20;;;;;;;0.80;0.80;;;;;;;;;;12607117;23;20377;-86
2023/05/12 05:07:22;;;;;;;1.20;0.70;;;;;;;;;;12604429;23;20393;-86
2023/05/12 05:12:25;;;;;;;0.70;0.70;;;;;;;;;;12607489;23;20373;-86
2023/05/12 05:17:29;;;;;;;1.73;0.70;;;;;;;;;;12607834;23;20817;-86
2023/05/12 05:22:31;;;;;;;0.85;0.85;;;;;;;;;;12607178;23;20841;-86
2023/05/12 05:27:34;;;;;;;1.03;0.70;;;;;;;;;;12606187;23;20448;-86
2023/05/12 05:32:39;;;;;;;0.60;0.43;;;;;;;;;;12605366;23;20381;-86
2023/05/12 05:37:41;;;;;;;0.80;0.75;;;;;;;;;;12628335;23;20373;-86
2023/05/12 05:42:44;;;;;;;0.93;0.60;;;;;;;;;;12626277;23;20380;-87
2023/05/12 05:47:48;;;;;;;1.50;0.50;;;;;;;;;;12605292;23;20392;-87
2023/05/12 05:52:51;;;;;;;0.70;0.70;;;;;;;;;;12623222;23;20698;-87
2023/05/12 05:57:53;;;;;;;1.00;0.57;;;;;;;;;;12606421;23;20463;-85
2023/05/12 06:02:56;;;;;;;0.60;0.52;;;;;;;;;;12596467;23;20377;-86
2023/05/12 06:07:59;;;;;;;0.60;0.60;;;;;;;;;;12601636;23;20397;-86
2023/05/12 06:13:01;;;;;;;1.10;0.90;;;;;;;;;;12603526;23;20417;-85
2023/05/12 06:18:05;;;;;;;1.20;0.70;;;;;;;;;;12603878;23;20384;-86
2023/05/12 06:23:07;;;;;;;0.82;0.70;;;;;;;;;;12602713;23;20440;-86
2023/05/12 06:28:10;;;;;;;1.05;0.95;;;;;;;;;;12603098;23;20424;-86
2023/05/12 06:33:13;;;;;;;1.38;0.90;;;;;;;;;;12623208;23;20377;-86
2023/05/12 06:38:16;;;;;;;1.00;0.90;;;;;;;;;;12604187;23;20376;-86
2023/05/12 06:43:18;;;;;;;2.05;1.10;;;;;;;;;;12607144;23;20428;-86
2023/05/12 06:48:22;;;;;;;1.25;0.80;;;;;;;;;;12606830;23;20868;-86
2023/05/12 06:53:24;;;;;;;0.88;0.75;;;;;;;;;;12606457;23;20404;-87
2023/05/12 06:58:26;;;;;;;1.00;0.90;;;;;;;;;;12627478;23;20377;-87
2023/05/12 07:03:33;;;;;;;1.13;1.00;;;;;;;;;;12605405;23;20420;-86
2023/05/12 07:08:35;;;;;;;1.27;0.98;;;;;;;;;;12604955;23;20389;-86
2023/05/12 07:13:38;;;;;;;1.35;1.10;;;;;;;;;;12606251;23;20850;-86
2023/05/12 07:18:42;;;;;;;1.90;1.10;;;;;;;;;;12604907;23;20412;-86
2023/05/12 07:23:44;;;;;;;1.27;1.17;;;;;;;;;;12606667;23;20449;-86
2023/05/12 07:28:46;;;;;;;1.90;1.35;;;;;;;;;;12605458;23;20455;-85
2023/05/12 07:33:50;;;;;;;1.90;1.40;;;;;;;;;;12605777;23;20440;-86
2023/05/12 07:38:52;;;;;;;2.63;1.42;;;;;;;;;;12605191;23;20380;-85
2023/05/12 07:43:54;;;;;;;2.50;1.70;;;;;;;;;;12627263;23;20853;-86
2023/05/12 07:48:58;;;;;;;1.90;1.47;;;;;;;;;;12607441;23;20392;-85
2023/05/12 07:54:00;;;;;;;1.67;1.57;;;;;;;;;;12607473;23;20419;-86
2023/05/12 07:59:03;;;;;;;2.03;1.83;;;;;;;;;;12604444;23;20372;-87
2023/05/12 08:04:06;;;;;;;2.35;2.15;;;;;;;;;;12625430;23;20838;-86
2023/05/12 08:09:08;;;;;;;2.17;1.97;;;;;;;;;;12603662;23;20393;-86
2023/05/12 08:14:11;;;;;;;2.28;1.92;;;;;;;;;;12604534;23;20687;-87
2023/05/12 08:19:14;;;;;;;2.42;2.00;;;;;;;;;;12623214;23;20381;-86
2023/05/12 08:24:20;;;;;;;3.40;2.23;;;;;;;;;;12600273;23;20463;-87
2023/05/12 08:29:23;;;;;;;2.70;2.40;;;;;;;;;;12599545;23;20444;-86
2023/05/12 08:34:26;;;;;;;3.23;2.47;;;;;;;;;;12602377;23;20408;-88
2023/05/12 08:39:29;;;;;;;2.40;2.20;;;;;;;;;;12623967;23;20501;-87
2023/05/12 08:44:33;;;;;;;2.20;2.00;;;;;;;;;;12601302;23;20931;-86
2023/05/12 08:49:39;;;;;;;1.90;1.58;;;;;;;;;;12602395;23;20392;-86
2023/05/12 08:54:42;;;;;;;3.55;2.15;;;;;;;;;;12601678;23;20710;-87
2023/05/12 08:59:44;;;;;;;2.63;2.00;;;;;;;;;;12602170;23;20834;-86
2023/05/12 09:04:48;;;;;;;1.90;1.50;;;;;;;;;;12622975;23;20872;-86
2023/05/12 09:09:55;;;;;;;1.90;1.80;;;;;;;;;;12603250;23;20392;-87
2023/05/12 09:15:03;;;;;;;2.05;1.70;;;;;;;;;;12602923;23;20394;-84
2023/05/12 09:20:09;;;;;;;1.90;1.70;;;;;;;;;;12603961;23;20432;-87
2023/05/12 09:25:16;;;;;;;4.40;2.47;;;;;;;;;;12580911;23;20514;-86
2023/05/12 09:30:30;;;;;;;2.22;1.80;;;;;;;;;;12605869;23;20762;-85
2023/05/12 09:35:38;;;;;;;2.00;1.80;;;;;;;;;;12604612;23;20415;-86
2023/05/12 09:40:41;;;;;;;2.50;1.50;;;;;;;;;;12607436;23;20531;-87
2023/05/12 09:45:46;;;;;;;1.98;1.30;;;;;;;;;;12606002;23;20841;-86
2023/05/12 09:50:52;;;;;;;1.23;1.10;;;;;;;;;;12609324;23;20397;-87
2023/05/12 09:55:57;;;;;;;1.58;1.48;;;;;;;;;;12604408;23;20381;-87
2023/05/12 10:00:59;;;;;;;1.93;1.60;;;;;;;;;;12606599;23;20447;-85
2023/05/12 10:06:07;;;;;;;1.60;1.50;;;;;;;;;;12604423;23;20447;-86
2023/05/12 10:11:10;;;;;;;2.00;1.80;;;;;;;;;;12603657;23;20936;-86
2023/05/12 10:16:13;;;;;;;1.30;1.20;;;;;;;;;;12605716;23;20537;-88
2023/05/12 10:21:17;;;;;;;1.33;1.23;;;;;;;;;;12610296;23;20447;-85
2023/05/12 10:26:22;;;;;;;1.75;1.30;;;;;;;;;;12609173;23;20436;-86
2023/05/12 10:31:26;;;;;;;1.63;1.20;;;;;;;;;;12607400;23;20443;-86
2023/05/12 10:36:43;;;;;;;2.40;1.70;;;;;;;;;;12608159;23;20376;-87
2023/05/12 10:41:45;;;;;;;1.45;1.25;;;;;;;;;;12609038;23;20440;-85
2023/05/12 10:46:57;;;;;;;2.80;1.40;;;;;;;;;;12607171;23;20380;-87
2023/05/12 10:52:01;;;;;;;1.47;1.10;;;;;;;;;;12611070;23;20458;-87
2023/05/12 10:57:12;;;;;;;1.50;1.20;;;;;;;;;;12609687;23;20413;-88
2023/05/12 11:02:16;;;;;;;2.38;1.30;;;;;;;;;;12611039;23;20459;-87
2023/05/12 11:07:22;;;;;;;1.70;1.40;;;;;;;;;;12609783;23;20444;-87
2023/05/12 11:12:26;;;;;;;1.48;1.38;;;;;;;;;;12609429;23;20393;-87
2023/05/12 11:17:29;;;;;;;1.97;1.77;;;;;;;;;;12627769;23;20384;-82
2023/05/12 11:22:33;;;;;;;2.40;2.20;;;;;;;;;;12609545;23;20467;-88
2023/05/12 11:27:38;;;;;;;3.78;2.28;;;;;;;;;;12605111;23;20369;-88
2023/05/12 11:32:40;;;;;;;1.60;1.50;;;;;;;;;;12601265;23;20742;-87
2023/05/12 11:37:45;;;;;;;1.83;1.40;;;;;;;;;;12602753;23;20384;-86
2023/05/12 11:42:51;;;;;;;1.93;1.40;;;;;;;;;;12600672;23;20392;-86
2023/05/12 11:47:53;;;;;;;2.28;2.08;;;;;;;;;;12600382;23;20392;-88
2023/05/12 11:52:57;;;;;;;2.40;2.20;;;;;;;;;;12599595;23;20452;-85
2023/05/12 11:58:01;;;;;;;2.05;1.92;;;;;;;;;;12603042;23;20443;-88
2023/05/12 12:03:11;;;;;;;2.27;2.07;;;;;;;;;;12625713;23;20381;-88
2023/05/12 12:08:16;;;;;;;2.08;1.85;;;;;;;;;;12605876;23;20400;-88
2023/05/12 12:13:20;;;;;;;1.75;1.50;;;;;;;;;;12604325;23;20377;-86
2023/05/12 12:18:23;;;;;;;1.30;1.20;;;;;;;;;;12597342;23;20670;-86
2023/05/12 12:23:26;;;;;;;1.27;1.00;;;;;;;;;;12597637;23;20460;-86
2023/05/12 12:28:29;;;;;;;1.63;1.40;;;;;;;;;;12595405;23;20396;-85
2023/05/12 12:33:31;;;;;;;1.88;1.77;;;;;;;;;;12595619;23;20392;-86
2023/05/12 12:38:35;;;;;;;2.90;2.30;;;;;;;;;;12605805;23;20388;-86
2023/05/12 12:43:39;;;;;;;2.08;1.80;;;;;;;;;;12590808;23;20451;-86
2023/05/12 12:48:44;;;;;;;2.83;2.30;;;;;;;;;;12568334;23;20421;-86
2023/05/12 12:53:48;;;;;;;3.00;2.40;;;;;;;;;;12590911;23;20490;-88
2023/05/12 12:58:50;;;;;;;2.60;2.40;;;;;;;;;;12595215;23;20385;-86
2023/05/12 13:03:52;;;;;;;2.97;2.67;;;;;;;;;;12592833;23;20427;-85
2023/05/12 13:08:56;;;;;;;3.10;2.80;;;;;;;;;;12615195;23;20416;-87
2023/05/12 13:14:01;;;;;;;2.83;2.53;;;;;;;;;;12592996;23;20388;-86
2023/05/12 13:19:03;;;;;;;3.35;2.88;;;;;;;;;;12592875;23;20396;-85
2023/05/12 13:24:07;;;;;;;3.70;2.80;;;;;;;;;;12593672;23;20479;-86
2023/05/12 13:29:09;;;;;;;3.75;2.70;;;;;;;;;;12599994;23;20464;-85
2023/05/12 13:34:12;;;;;;;3.80;3.38;;;;;;;;;;12589425;23;20376;-86
2023/05/12 13:39:15;;;;;;;5.47;3.40;;;;;;;;;;12592153;23;20384;-85
2023/05/12 13:44:18;;;;;;;4.40;3.15;;;;;;;;;;12592320;23;20388;-85
2023/05/12 13:49:20;;;;;;;4.53;3.20;;;;;;;;;;12592080;23;20397;-86
2023/05/12 13:54:24;;;;;;;4.03;2.90;;;;;;;;;;12595776;23;20392;-86
2023/05/12 13:59:26;;;;;;;4.90;3.07;;;;;;;;;;12595620;23;20385;-86
2023/05/12 14:04:28;;;;;;;3.40;2.70;;;;;;;;;;12597654;23;21299;-86
2023/05/12 14:09:32;;;;;;;3.05;2.45;;;;;;;;;;12600156;23;20393;-85
2023/05/12 14:14:34;;;;;;;3.53;2.50;;;;;;;;;;12601238;23;20447;-87
2023/05/12 14:19:37;;;;;;;3.33;2.47;;;;;;;;;;12600781;23;20416;-87
2023/05/12 14:24:40;;;;;;;3.60;2.42;;;;;;;;;;12601059;23;20396;-87
2023/05/12 14:29:43;;;;;;;3.00;2.70;;;;;;;;;;12602008;23;20458;-87
2023/05/12 14:34:45;;;;;;;4.45;2.45;;;;;;;;;;12597556;23;20761;-84
2023/05/12 14:39:49;;;;;;;2.78;2.10;;;;;;;;;;12598658;23;20455;-86
2023/05/12 14:44:51;;;;;;;2.53;2.30;;;;;;;;;;12607981;23;20857;-86
2023/05/12 14:49:54;;;;;;;2.67;2.10;;;;;;;;;;12613413;23;20468;-85
2023/05/12 14:54:57;;;;;;;1.92;1.80;;;;;;;;;;12594260;23;20384;-84
2023/05/12 15:00:00;;;;;;;3.00;1.90;;;;;;;;;;12595741;23;20440;-82
2023/05/12 15:05:02;;;;;;;4.20;2.40;;;;;;;;;;12591141;23;20849;-85
2023/05/12 15:10:07;;;;;;;2.30;2.00;;;;;;;;;;12592116;23;20393;-83
2023/05/12 15:15:10;;;;;;;2.30;2.10;;;;;;;;;;12593879;23;20779;-84
2023/05/12 15:20:12;;;;;;;3.45;2.58;;;;;;;;;;12595123;23;20428;-85
2023/05/12 15:25:16;;;;;;;3.03;2.73;;;;;;;;;;12593994;23;20389;-84
2023/05/12 15:30:18;;;;;;;4.00;3.05;;;;;;;;;;12595918;23;20503;-85
2023/05/12 15:35:20;;;;;;;3.50;3.20;;;;;;;;;;12602751;23;20861;-85
2023/05/12 15:40:24;;;;;;;4.85;3.30;;;;;;;;;;12595902;23;20774;-84
2023/05/12 15:45:27;;;;;;;4.15;3.38;;;;;;;;;;12596505;23;20393;-85
2023/05/12 15:50:29;;;;;;;4.78;4.10;;;;;;;;;;12596224;23;20459;-84
2023/05/12 15:55:33;;;;;;;4.27;3.30;;;;;;;;;;12592634;23;20388;-84
2023/05/12 16:00:35;;;;;;;4.53;3.55;;;;;;;;;;12593906;23;20388;-85
2023/05/12 16:05:38;;;;;;;3.70;3.40;;;;;;;;;;12610846;23;20829;-85
2023/05/12 16:10:41;;;;;;;4.07;3.73;;;;;;;;;;12612717;23;21154;-86
2023/05/12 16:15:44;;;;;;;4.80;3.80;;;;;;;;;;12591904;23;20373;-87
2023/05/12 16:20:47;;;;;;;4.70;3.73;;;;;;;;;;12594698;23;20389;-85
2023/05/12 16:25:50;;;;;;;5.32;3.70;;;;;;;;;;12598953;23;20487;-86
2023/05/12 16:30:52;;;;;;;5.17;3.63;;;;;;;;;;12598214;23;20397;-85
2023/05/12 16:35:55;;;;;;;3.00;2.30;;;;;;;;;;12603944;23;20439;-87
2023/05/12 16:41:00;;;;;;;2.97;2.35;;;;;;;;;;12607094;23;20436;-87
2023/05/12 16:46:03;;;;;;;3.70;2.60;;;;;;;;;;12598720;23;20487;-85
2023/05/12 16:51:07;;;;;;;4.40;3.13;;;;;;;;;;12622205;23;20443;-86
2023/05/12 16:56:11;;;;;;;3.70;3.00;;;;;;;;;;12619106;23;20373;-86
2023/05/12 17:01:13;;;;;;;3.42;2.80;;;;;;;;;;12603317;23;20434;-85
2023/05/12 17:06:16;;;;;;;3.90;2.70;;;;;;;;;;12604377;23;20443;-86
2023/05/12 17:11:20;;;;;;;2.97;2.60;;;;;;;;;;12601593;23;20392;-84
2023/05/12 17:16:22;;;;;;;2.88;2.47;;;;;;;;;;12601785;23;20948;-85
2023/05/12 17:21:25;;;;;;;4.33;2.90;;;;;;;;;;12600773;23;20909;-84
2023/05/12 17:26:29;;;;;;;3.23;2.40;;;;;;;;;;12598704;23;20381;-85
2023/05/12 17:31:31;;;;;;;2.95;1.83;;;;;;;;;;12600851;23;20392;-85
2023/05/12 17:36:33;;;;;;;6.50;2.80;;;;;;;;;;12600073;23;20380;-85
2023/05/12 17:41:37;;;;;;;4.30;1.95;;;;;;;;;;12595557;23;20373;-85
2023/05/12 17:46:39;;;;;;;4.95;2.00;;;;;;;;;;12596242;23;20701;-85
2023/05/12 17:51:43;;;;;;;3.90;2.17;;;;;;;;;;12598370;23;20447;-85
2023/05/12 17:56:47;;;;;;;2.80;1.30;;;;;;;;;;12599072;23;20435;-85
2023/05/12 18:01:49;;;;;;;2.40;1.57;;;;;;;;;;12600946;23;20916;-85
2023/05/12 18:06:52;;;;;;;2.35;1.50;;;;;;;;;;12601606;23;20376;-85
2023/05/12 18:11:56;;;;;;;1.90;1.30;;;;;;;;;;12600371;23;20994;-85
2023/05/12 18:16:58;;;;;;;2.75;1.63;;;;;;;;;;12621213;23;20687;-84
2023/05/12 18:22:02;;;;;;;3.70;1.50;;;;;;;;;;12596345;23;20464;-86
2023/05/12 18:27:07;;;;;;;1.90;1.10;;;;;;;;;;12600731;23;20427;-84
2023/05/12 18:32:10;;;;;;;2.97;1.75;;;;;;;;;;12597674;23;20392;-85
2023/05/12 18:37:14;;;;;;;1.55;1.27;;;;;;;;;;12601174;23;20451;-84
2023/05/12 18:42:17;;;;;;;1.90;1.60;;;;;;;;;;12599969;23;20372;-83
2023/05/12 18:47:20;;;;;;;2.80;2.00;;;;;;;;;;12591328;23;20452;-84
2023/05/12 18:52:22;;;;;;;3.00;1.90;;;;;;;;;;12595960;23;20925;-84
2023/05/12 18:57:26;;;;;;;2.10;1.52;;;;;;;;;;12596360;23;20388;-84
2023/05/12 19:02:29;;;;;;;2.75;1.80;;;;;;;;;;12597196;23;20753;-84
2023/05/12 19:07:31;;;;;;;2.13;1.90;;;;;;;;;;12596457;23;20933;-84
2023/05/12 19:12:35;;;;;;;2.92;2.28;;;;;;;;;;12595943;23;20455;-83
2023/05/12 19:17:39;;;;;;;3.65;2.40;;;;;;;;;;12595015;23;20393;-84
2023/05/12 19:22:42;;;;;;;3.85;2.50;;;;;;;;;;12597445;23;20468;-84
2023/05/12 19:27:46;;;;;;;3.07;2.70;;;;;;;;;;12595770;23;20385;-84
2023/05/12 19:32:51;;;;;;;2.97;2.45;;;;;;;;;;12599445;23;20397;-83
2023/05/12 19:37:53;;;;;;;2.42;1.60;;;;;;;;;;12593190;23;20416;-84
2023/05/12 19:42:57;;;;;;;2.63;1.52;;;;;;;;;;12594228;23;20385;-84
2023/05/12 19:47:59;;;;;;;2.53;1.50;;;;;;;;;;12595571;23;20444;-83
2023/05/12 19:53:01;;;;;;;2.13;1.33;;;;;;;;;;12596098;23;20459;-84
2023/05/12 19:58:07;;;;;;;2.08;1.80;;;;;;;;;;12597223;23;20436;-83
2023/05/12 20:03:09;;;;;;;2.03;1.83;;;;;;;;;;12609616;23;20417;-84
2023/05/12 20:08:12;;;;;;;2.92;2.10;;;;;;;;;;12592694;23;20386;-83
2023/05/12 20:13:16;;;;;;;2.88;2.35;;;;;;;;;;12594343;23;20439;-82
2023/05/12 20:18:20;;;;;;;2.80;2.60;;;;;;;;;;12592837;23;20381;-83
2023/05/12 20:23:22;;;;;;;2.95;2.63;;;;;;;;;;12594818;23;20380;-83
2023/05/12 20:28:27;;;;;;;2.67;2.47;;;;;;;;;;12595443;23;20451;-83
2023/05/12 20:33:29;;;;;;;3.42;3.13;;;;;;;;;;12600717;23;20388;-83
2023/05/12 20:38:31;;;;;;;3.73;3.20;;;;;;;;;;12600402;23;20413;-82
2023/05/12 20:43:35;;;;;;;5.13;3.63;;;;;;;;;;12601664;23;20858;-84
2023/05/12 20:48:42;;;;;;;3.80;3.40;;;;;;;;;;12602477;23;20381;-85
2023/05/12 20:53:44;;;;;;;3.80;3.33;;;;;;;;;;12601844;23;20392;-83
2023/05/12 20:58:48;;;;;;;4.47;3.35;;;;;;;;;;12600393;23;20440;-83
2023/05/12 21:03:50;;;;;;;3.58;2.70;;;;;;;;;;12589022;23;20377;-84
2023/05/12 21:08:53;;;;;;;3.22;2.70;;;;;;;;;;12601365;23;20424;-83
2023/05/12 21:13:57;;;;;;;3.83;2.80;;;;;;;;;;12600201;23;20432;-84
2023/05/12 21:18:59;;;;;;;3.03;2.60;;;;;;;;;;12604061;23;20369;-84
2023/05/12 21:24:01;;;;;;;2.70;2.50;;;;;;;;;;12604608;23;20368;-84
2023/05/12 21:29:05;;;;;;;3.30;2.53;;;;;;;;;;12606652;23;20376;-84
2023/05/12 21:34:08;;;;;;;2.47;2.07;;;;;;;;;;12607733;23;20726;-84
2023/05/12 21:39:10;;;;;;;2.17;1.98;;;;;;;;;;12627316;23;20702;-84
2023/05/12 21:44:15;;;;;;;2.10;1.90;;;;;;;;;;12607292;23;20380;-85
2023/05/12 21:49:17;;;;;;;2.00;1.80;;;;;;;;;;12606566;23;20409;-84
2023/05/12 21:54:19;;;;;;;3.05;1.80;;;;;;;;;;12607881;23;20393;-84
2023/05/12 21:59:23;;;;;;;2.10;1.90;;;;;;;;;;12607864;23;20845;-84
2023/05/12 22:04:26;;;;;;;2.22;2.03;;;;;;;;;;12608288;23;20412;-84
2023/05/12 22:09:29;;;;;;;2.08;1.88;;;;;;;;;;12607103;23;20380;-84
2023/05/12 22:14:32;;;;;;;2.60;2.40;;;;;;;;;;12609770;23;20460;-84
2023/05/12 22:19:35;;;;;;;2.88;2.30;;;;;;;;;;12611000;23;20751;-84
2023/05/12 22:24:37;;;;;;;2.80;2.42;;;;;;;;;;12611705;23;20376;-84
2023/05/12 22:29:41;;;;;;;2.90;2.50;;;;;;;;;;12612286;23;20412;-84
2023/05/12 22:34:43;;;;;;;3.17;2.63;;;;;;;;;;12609798;23;20683;-84
2023/05/12 22:39:45;;;;;;;2.60;2.40;;;;;;;;;;12610650;23;20408;-84
2023/05/12 22:44:50;;;;;;;3.73;2.67;;;;;;;;;;12611570;23;20372;-84
2023/05/12 22:49:52;;;;;;;3.00;2.70;;;;;;;;;;12611457;23;20376;-84
2023/05/12 22:54:55;;;;;;;2.57;2.37;;;;;;;;;;12611063;23;20392;-85
2023/05/12 22:59:59;;;;;;;2.92;2.63;;;;;;;;;;12610389;23;20369;-84
2023/05/12 23:05:02;;;;;;;3.13;2.78;;;;;;;;;;12618728;23;20374;-94
2023/05/12 23:10:06;;;;;;;3.55;2.75;;;;;;;;;;12700978;23;20929;-96
2023/05/12 23:15:11;;;;;;;3.90;3.30;;;;;;;;;;12701375;23;20410;-94
2023/05/12 23:20:14;;;;;;;4.97;2.97;;;;;;;;;;12720404;23;20367;-95
2023/05/12 23:25:16;;;;;;;4.53;3.47;;;;;;;;;;12701517;23;20402;-95
2023/05/12 23:30:20;;;;;;;4.17;3.20;;;;;;;;;;12719383;23;20375;-95
2023/05/12 23:35:23;;;;;;;3.53;3.22;;;;;;;;;;12696398;23;20382;-95
2023/05/12 23:40:26;;;;;;;4.53;3.47;;;;;;;;;;12694873;23;20910;-95
2023/05/12 23:45:30;;;;;;;3.37;3.10;;;;;;;;;;12696003;23;20368;-93
2023/05/12 23:50:32;;;;;;;3.70;2.80;;;;;;;;;;12683358;23;20451;-94
2023/05/12 23:55:34;;;;;;;2.97;2.67;;;;;;;;;;12682293;23;20391;-95
